Airfield :
LOGIN :

Register | Disclaimer

   EN    FR    IT 

 










Legend :    VFR   Marginal VFR   IFR   Intensive IFR   Very Intensive IFR
Visi :
Ceiling :
>= 8 km
>= 3000ft
5 to 8 km
1000 to 3000 ft
1500m to 5 km
500 to 1000 ft
800 to 1500m
200 to 500 ft
< 800m
< 200 ft
Symbols :   Thunderstorms  Fog  Heavy snow  Heavy precipitations  Wind > 20 kt
SIGMETs :     Misc.  Thunderstorms  Icing  Turbulence  Mountain Waves  Volcanic Ashes






- Airport Elevation : 235 ft
- IATA code : BZG


EPBY - Bydgoszcz

CURRENT METAR :
  • 202100Z 17009KT 9999 SCT039 03/M01 Q1014

EXPIRED METARs :
  • 202030Z 17008KT CAVOK 03/M02 Q1014
  • 202000Z 16010KT CAVOK 03/M02 Q1015
  • 201930Z 16009KT CAVOK 03/M02 Q1015
  • 201900Z 16008KT CAVOK 03/M01 Q1016
  • 201830Z 17007KT CAVOK 03/M02 Q1016

TAF TAF EPBY
Valid from the 20 at 18:00 until the 21 at 18:00 UTC


201730Z 2018/2118 18008KT CAVOK
BECMG 2019/2022 BKN033
BECMG 2023/2102 6000 -RA BKN013 OVC027
TEMPO 2103/2115 3000 RA SHRA BKN006 OVC013CB
BECMG 2105/2108 27012KT
PROB40
TEMPO 2106/2118 28016G30KT



MET'MAP, your aeronautical weather chart ! - Copyright ORBIFLY December 2007 - Disclaimer

ORBIFLY MET'MAP TEAM :

Programming & Development : Alexandra Zaïnal
Concept & original design : Baudouin d'Aumeries
Assistance for programming : Marc-Olivier Méhu
Technical & hardware support : Manuel Goepfert

Contact : metmap@orbifly.com




SOURCES & CREDITS :

   NOAA